CSL Assiniboine — VCKQ — position and weather

sailwx.info

Track history (hours):
 
Tides and Currents Weather Stations Pressure Air Temp Water Temp Dewpoint Dewpoint Depression Visibility Wind Speed Wind Dir Waves Ship Positions

CSL Assiniboine

Last reported at 2017-Nov-17 13:43 UTC. Time now 2017-Nov-19 10:20 UTC.
Position N 46°49' W 091°40'.

Length 225 m; draft 8.6 m.

Type: Cargo ship. MMSI: 316001633.

Date/timePositionNaut miles runAvg speedWind from/ knotsBaromVisibWave heightAir tempDewpointWater temp
2017-Nov-17 13:43N 46°49' W 091°40'210.8
2017-Nov-17 13:30N 46°49' W 091°44'510.9
2017-Nov-17 13:00N 46°46' W 091°51'510.8
2017-Nov-17 12:30N 46°44' W 091°58'3 5.6
2017-Nov-17 12:00N 46°42' W 092°01'0 0.6
2017-Nov-17 11:31N 46°42' W 092°01'0 0.0
2017-Nov-17 11:00N 46°42' W 092°01'0 0.0
2017-Nov-17 10:30N 46°42' W 092°01'0 0.0
2017-Nov-17 10:00N 46°42' W 092°01'0 0.0
2017-Nov-17 09:30N 46°42' W 092°01'0 0.0
2017-Nov-17 09:00N 46°42' W 092°01'0 0.0
2017-Nov-17 08:30N 46°42' W 092°01'0 0.0
2017-Nov-17 08:00N 46°42' W 092°01'0 0.0
2017-Nov-17 07:30N 46°42' W 092°01'0 0.0
2017-Nov-17 07:00N 46°42' W 092°01'0 0.0
2017-Nov-17 06:30N 46°42' W 092°01'0 0.0
2017-Nov-17 06:00N 46°42' W 092°01'0 0.0
2017-Nov-17 05:30N 46°42' W 092°01'0 0.0
2017-Nov-17 05:00N 46°42' W 092°01'0 0.0
2017-Nov-17 04:30N 46°42' W 092°01'0 0.0
2017-Nov-17 04:00N 46°42' W 092°01'0 0.0
2017-Nov-17 03:30N 46°42' W 092°01'0 0.0
2017-Nov-17 03:00N 46°42' W 092°01'0 0.0
2017-Nov-17 02:30N 46°42' W 092°01'0 0.0
2017-Nov-17 02:00N 46°42' W 092°01'0 0.0
2017-Nov-17 01:30N 46°42' W 092°01'0 0.0
2017-Nov-17 01:00N 46°42' W 092°01'0 0.0
2017-Nov-17 00:30N 46°42' W 092°01'0 0.0
2017-Nov-17 00:00N 46°42' W 092°01'0 0.0
2017-Nov-16 23:30N 46°42' W 092°01'0 0.0
2017-Nov-16 23:00N 46°42' W 092°01'0 0.2
2017-Nov-16 22:30N 46°42' W 092°01'1 1.6
2017-Nov-16 22:00N 46°43' W 092°00'4 8.0
2017-Nov-16 21:30N 46°45' W 091°55'611.3
2017-Nov-16 21:00N 46°48' W 091°49'611.3
2017-Nov-16 20:30N 46°51' W 091°42'336 8.3
2017-Nov-15 03:46N 45°47' W 083°44'511.4
2017-Nov-15 03:18N 45°43' W 083°40'311.5
2017-Nov-15 03:00N 45°40' W 083°37'611.6
2017-Nov-15 02:30N 45°35' W 083°32'611.4
2017-Nov-15 02:00N 45°31' W 083°28'611.5
2017-Nov-15 01:30N 45°26' W 083°23'  
2017-Nov-11 14:32N 45°14' W 074°09'0 8.2
2017-Nov-11 14:30N 45°14' W 074°08'4 7.8
2017-Nov-11 14:00N 45°13' W 074°03'4 6.7
2017-Nov-11 13:26N 45°15' W 073°58'3 7.8
2017-Nov-11 13:00N 45°18' W 073°56'0 0.6
2017-Nov-11 12:30N 45°18' W 073°55'1 1.4
2017-Nov-11 12:00N 45°19' W 073°55'1 1.2
2017-Nov-11 11:30N 45°20' W 073°55'3 6.6
2017-Nov-11 11:00N 45°21' W 073°51'4 8.8
2017-Nov-11 10:30N 45°24' W 073°46'4 7.7
2017-Nov-11 10:00N 45°25' W 073°41'3 6.0
2017-Nov-11 09:30N 45°24' W 073°36'2 3.3
2017-Nov-11 08:58N 45°24' W 073°34'0 0.7
2017-Nov-11 08:30N 45°24' W 073°33'2 4.0
2017-Nov-11 08:00N 45°25' W 073°31'3 6.0
2017-Nov-11 07:30N 45°28' W 073°30'2 2.3
2017-Nov-11 06:42N 45°30' W 073°31'0 1.4
2017-Nov-11 06:30N 45°30' W 073°31'  
Track history (hours):
 
Tides and Currents Weather Stations Pressure Air Temp Water Temp Dewpoint Dewpoint Depression Visibility Wind Speed Wind Dir Waves Ship Positions

CSL Assiniboine

Last reported at 2017-Nov-17 13:43 UTC. Time now 2017-Nov-19 10:20 UTC.
Position N 46°49' W 091°40'.

Length 225 m; draft 8.6 m.

Type: Cargo ship. MMSI: 316001633.

Date/timePositionNaut miles runAvg speedWind from/ knotsBaromVisibWave heightAir tempDewpointWater temp
2017-Nov-17 13:43N 46°49' W 091°40'210.8
2017-Nov-17 13:30N 46°49' W 091°44'510.9
2017-Nov-17 13:00N 46°46' W 091°51'510.8
2017-Nov-17 12:30N 46°44' W 091°58'3 5.6
2017-Nov-17 12:00N 46°42' W 092°01'0 0.6
2017-Nov-17 11:31N 46°42' W 092°01'0 0.0
2017-Nov-17 11:00N 46°42' W 092°01'0 0.0
2017-Nov-17 10:30N 46°42' W 092°01'0 0.0
2017-Nov-17 10:00N 46°42' W 092°01'0 0.0
2017-Nov-17 09:30N 46°42' W 092°01'0 0.0
2017-Nov-17 09:00N 46°42' W 092°01'0 0.0
2017-Nov-17 08:30N 46°42' W 092°01'0 0.0
2017-Nov-17 08:00N 46°42' W 092°01'0 0.0
2017-Nov-17 07:30N 46°42' W 092°01'0 0.0
2017-Nov-17 07:00N 46°42' W 092°01'0 0.0
2017-Nov-17 06:30N 46°42' W 092°01'0 0.0
2017-Nov-17 06:00N 46°42' W 092°01'0 0.0
2017-Nov-17 05:30N 46°42' W 092°01'0 0.0
2017-Nov-17 05:00N 46°42' W 092°01'0 0.0
2017-Nov-17 04:30N 46°42' W 092°01'0 0.0
2017-Nov-17 04:00N 46°42' W 092°01'0 0.0
2017-Nov-17 03:30N 46°42' W 092°01'0 0.0
2017-Nov-17 03:00N 46°42' W 092°01'0 0.0
2017-Nov-17 02:30N 46°42' W 092°01'0 0.0
2017-Nov-17 02:00N 46°42' W 092°01'0 0.0
2017-Nov-17 01:30N 46°42' W 092°01'0 0.0
2017-Nov-17 01:00N 46°42' W 092°01'0 0.0
2017-Nov-17 00:30N 46°42' W 092°01'0 0.0
2017-Nov-17 00:00N 46°42' W 092°01'0 0.0
2017-Nov-16 23:30N 46°42' W 092°01'0 0.0
2017-Nov-16 23:00N 46°42' W 092°01'0 0.2
2017-Nov-16 22:30N 46°42' W 092°01'1 1.6
2017-Nov-16 22:00N 46°43' W 092°00'4 8.0
2017-Nov-16 21:30N 46°45' W 091°55'611.3
2017-Nov-16 21:00N 46°48' W 091°49'611.3
2017-Nov-16 20:30N 46°51' W 091°42'336 8.3
2017-Nov-15 03:46N 45°47' W 083°44'511.4
2017-Nov-15 03:18N 45°43' W 083°40'311.5
2017-Nov-15 03:00N 45°40' W 083°37'611.6
2017-Nov-15 02:30N 45°35' W 083°32'611.4
2017-Nov-15 02:00N 45°31' W 083°28'611.5
2017-Nov-15 01:30N 45°26' W 083°23'  
2017-Nov-11 14:32N 45°14' W 074°09'0 8.2
2017-Nov-11 14:30N 45°14' W 074°08'4 7.8
2017-Nov-11 14:00N 45°13' W 074°03'4 6.7
2017-Nov-11 13:26N 45°15' W 073°58'3 7.8
2017-Nov-11 13:00N 45°18' W 073°56'0 0.6
2017-Nov-11 12:30N 45°18' W 073°55'1 1.4
2017-Nov-11 12:00N 45°19' W 073°55'1 1.2
2017-Nov-11 11:30N 45°20' W 073°55'3 6.6
2017-Nov-11 11:00N 45°21' W 073°51'4 8.8
2017-Nov-11 10:30N 45°24' W 073°46'4 7.7
2017-Nov-11 10:00N 45°25' W 073°41'3 6.0
2017-Nov-11 09:30N 45°24' W 073°36'2 3.3
2017-Nov-11 08:58N 45°24' W 073°34'0 0.7
2017-Nov-11 08:30N 45°24' W 073°33'2 4.0
2017-Nov-11 08:00N 45°25' W 073°31'3 6.0
2017-Nov-11 07:30N 45°28' W 073°30'2 2.3
2017-Nov-11 06:42N 45°30' W 073°31'0 1.4
2017-Nov-11 06:30N 45°30' W 073°31'  

Dump ship's entire track history